Sunbeam, Idaho
Current Conditions -  °F | °C
As of 7:55 PM on Thursday 18 Dec 2014 (Local Time) from KLLJ Reporting Station
Overcast Overcast  
Wind Chill: 26°   Ceiling: 6000
Heat Index: 26°   Visibility: 10mi
Dew Point: 22°   Wind: 0mph
Humidity: 84%   Direction: NA
Pressure: 30.08"   Gusts: NA
Location:  44.3379°N, 114.824°W
Report Text: KLLJ 190255Z AUTO 00000KT 10SM OVC060 M03/M06 A3008 RMK AO2 SLP226 T10331056 53004
Loading
Personal Weather Stations






























Interactive Weather Map New forecast layout! Learn more

10-Day Weather Forecast

Advertisements
Track Severe Weather on mobile